Time;durP1;ratioP1;P1;durP2;ratioP2;P2;SDS_P1;SDS_P2;PMS_P1;PMS_P2;Temp;Humidity;BMP_temperature;BMP_pressure;BME280_temperature;BME280_humidity;BME280_pressure;Samples;Min_cycle;Max_cycle;Signal;HPM_P1;HPM_P2
2022/01/10 00:00:54;;;;;;;3.83;3.07;;;;;;;6.49;87.98;93282.47;5155778;27;20172;-88
2022/01/10 00:03:22;;;;;;;7.30;3.77;;;;;;;6.68;88.28;93323.16;5136121;27;20195;-88
2022/01/10 00:05:47;;;;;;;7.80;3.53;;;;;;;6.56;87.96;93301.44;5136670;27;20582;-88
2022/01/10 00:08:14;;;;;;;6.50;3.53;;;;;;;6.69;87.98;93311.69;5137128;27;20263;-87
2022/01/10 00:10:40;;;;;;;7.33;3.63;;;;;;;6.81;87.85;93321.16;5137053;27;20263;-88
2022/01/10 00:13:06;;;;;;;10.37;4.40;;;;;;;6.87;88.08;93335.13;5155409;27;20215;-87
2022/01/10 00:15:31;;;;;;;6.37;3.57;;;;;;;6.66;87.73;93293.84;5136871;27;20171;-87
2022/01/10 00:17:57;;;;;;;5.30;3.40;;;;;;;6.85;87.19;93326.72;5155420;27;20160;-87
2022/01/10 00:20:22;;;;;;;6.47;3.40;;;;;;;6.50;87.64;93266.53;5136657;27;20982;-87
2022/01/10 00:22:49;;;;;;;6.40;3.33;;;;;;;6.74;88.18;93328.31;5155071;27;20259;-87
2022/01/10 00:25:20;;;;;;;5.97;3.50;;;;;;;6.78;88.51;93323.41;5155345;27;20171;-88
2022/01/10 00:27:48;;;;;;;6.83;3.33;;;;;;;6.75;88.08;93324.66;5136569;27;20552;-87
2022/01/10 00:30:13;;;;;;;6.03;3.33;;;;;;;6.40;88.53;93280.16;5142723;27;20561;-87
2022/01/10 00:32:41;;;;;;;7.67;3.47;;;;;;;6.45;89.21;93287.31;5136555;27;20281;-87
2022/01/10 00:35:07;;;;;;;6.40;3.50;;;;;;;6.49;89.57;93298.16;5136387;27;20223;-88
2022/01/10 00:37:34;;;;;;;6.20;3.63;;;;;;;6.60;89.67;93323.50;5155090;27;20184;-88
2022/01/10 00:40:01;;;;;;;6.23;3.70;;;;;;;6.58;90.03;93321.09;5136374;27;20187;-87
2022/01/10 00:42:26;;;;;;;7.43;3.10;;;;;;;6.57;90.12;93316.91;5154877;27;20152;-87
2022/01/10 00:44:53;;;;;;;7.73;3.57;;;;;;;6.64;90.46;93327.25;5136450;27;20171;-87
2022/01/10 00:47:20;;;;;;;5.93;3.40;;;;;;;6.72;90.86;93325.13;5155476;27;20156;-88
2022/01/10 00:49:46;;;;;;;6.27;3.37;;;;;;;6.71;90.30;93320.91;5154859;27;20156;-87
2022/01/10 00:52:11;;;;;;;5.80;4.20;;;;;;;6.43;90.28;93278.91;5136531;27;20232;-88
2022/01/10 00:54:38;;;;;;;5.73;3.30;;;;;;;6.77;90.64;93308.75;5136529;27;20183;-88
2022/01/10 00:57:05;;;;;;;6.33;3.03;;;;;;;6.73;90.08;93312.84;5155446;27;20179;-88
2022/01/10 00:59:30;;;;;;;5.90;3.20;;;;;;;6.72;90.25;93300.78;5136326;27;20256;-88
2022/01/10 01:01:56;;;;;;;6.00;3.10;;;;;;;6.49;90.44;93272.78;5136705;27;20168;-87
2022/01/10 01:04:21;;;;;;;6.17;3.73;;;;;;;6.75;90.19;93308.16;5154338;27;20171;-87
2022/01/10 01:06:48;;;;;;;7.43;3.60;;;;;;;6.69;90.27;93303.84;5135822;27;20164;-88
2022/01/10 01:09:16;;;;;;;7.07;3.93;;;;;;;6.44;90.65;93256.97;5154341;27;20160;-87
2022/01/10 01:14:21;;;;;;;7.77;3.90;;;;;;;6.79;91.15;93311.94;5154613;27;20595;-87
2022/01/10 01:16:56;;;;;;;7.30;4.00;;;;;;;6.63;90.87;93289.06;5154269;27;20546;-87
2022/01/10 01:24:34;;;;;;;9.23;3.70;;;;;;;6.55;91.68;93290.19;5154211;27;20194;-87
2022/01/10 01:27:00;;;;;;;6.63;4.03;;;;;;;6.39;91.90;93267.31;5135241;27;20654;-88
2022/01/10 01:29:28;;;;;;;5.93;4.13;;;;;;;6.62;92.14;93298.72;5135351;27;20296;-87
2022/01/10 01:31:54;;;;;;;7.70;4.23;;;;;;;6.57;92.48;93292.59;5135328;27;20674;-87
2022/01/10 01:34:22;;;;;;;7.57;3.80;;;;;;;6.40;93.01;93259.25;5153860;27;20558;-87
2022/01/10 01:36:52;;;;;;;6.33;3.43;;;;;;;6.20;92.95;93235.25;5153891;27;20152;-88
2022/01/10 01:39:24;;;;;;;5.63;4.13;;;;;;;6.41;93.48;93270.50;5153871;27;20711;-88
2022/01/10 01:42:00;;;;;;;9.23;4.00;;;;;;;6.47;92.77;93269.63;5135267;27;20191;-88
2022/01/10 01:44:26;;;;;;;5.53;3.60;;;;;;;6.39;92.69;93255.06;5133159;27;20618;-88
2022/01/10 01:46:51;;;;;;;6.10;3.40;;;;;;;6.61;92.94;93285.88;5133226;27;20225;-88
2022/01/10 01:49:17;;;;;;;6.27;3.63;;;;;;;6.34;93.68;93252.31;5114913;28;20200;-88
2022/01/10 01:51:43;;;;;;;5.33;3.40;;;;;;;6.32;93.71;93246.50;5114863;27;20164;-88
2022/01/10 01:54:09;;;;;;;5.07;3.67;;;;;;;6.17;93.86;93222.63;5133114;28;20250;-88
2022/01/10 01:56:36;;;;;;;6.57;3.57;;;;;;;6.41;94.07;93257.44;5133091;28;20687;-88
2022/01/10 01:59:03;;;;;;;4.40;2.90;;;;;;;6.52;94.33;93271.53;5114420;28;20711;-88
2022/01/10 02:01:28;;;;;;;6.50;3.60;;;;;;;6.51;94.06;93262.09;5114686;28;20186;-88
2022/01/10 02:03:54;;;;;;;9.13;3.27;;;;;;;6.39;93.51;93246.41;5114634;28;20177;-88
2022/01/10 02:06:19;;;;;;;3.67;3.23;;;;;;;6.48;93.97;93265.19;5134614;27;20179;-87
2022/01/10 02:08:45;;;;;;;4.07;3.10;;;;;;;6.55;94.18;93277.13;5135046;27;20649;-88
2022/01/10 02:11:13;;;;;;;4.83;3.10;;;;;;;6.36;93.71;93245.03;5153579;27;20614;-88
2022/01/10 02:13:39;;;;;;;3.63;2.80;;;;;;;6.56;94.42;93280.53;5153554;27;20560;-88
2022/01/10 02:16:07;;;;;;;5.07;2.97;;;;;;;6.55;94.41;93277.13;5132907;28;20184;-87
2022/01/10 02:18:34;;;;;;;3.50;2.70;;;;;;;6.39;94.56;93256.88;5114567;28;20176;-89
2022/01/10 02:21:02;;;;;;;5.17;3.10;;;;;;;6.42;94.17;93262.44;5153081;27;20630;-88
2022/01/10 02:23:28;;;;;;;3.00;2.43;;;;;;;6.35;94.51;93250.50;5137127;27;20156;-87
2022/01/10 02:25:54;;;;;;;3.90;3.00;;;;;;;6.52;94.26;93277.56;5156602;27;20184;-87
2022/01/10 02:28:20;;;;;;;5.07;2.73;;;;;;;6.32;95.01;93251.72;5157516;27;20219;-88
2022/01/10 02:30:45;;;;;;;5.90;3.03;;;;;;;6.42;94.91;93269.47;5157549;27;20160;-87
2022/01/10 02:33:11;;;;;;;12.73;4.90;;;;;;;6.26;95.09;93242.19;5157222;27;20262;-87
2022/01/10 02:35:47;;;;;;;5.97;3.70;;;;;;;6.18;94.77;93231.25;5157207;27;20211;-87
2022/01/10 02:38:12;;;;;;;6.30;3.60;;;;;;;6.49;94.86;93282.47;5138556;27;20186;-87
2022/01/10 02:40:38;;;;;;;8.40;3.93;;;;;;;6.28;95.51;93253.22;5138568;27;20195;-87
2022/01/10 02:43:07;;;;;;;5.63;4.07;;;;;;;6.35;95.83;93261.75;5157475;27;20168;-88
2022/01/10 02:45:33;;;;;;;6.33;3.80;;;;;;;6.40;95.66;93274.91;5157492;27;20172;-87
2022/01/10 02:47:58;;;;;;;4.07;3.30;;;;;;;6.19;95.55;93246.72;5156998;27;20632;-88
2022/01/10 02:50:24;;;;;;;5.40;3.37;;;;;;;6.49;95.79;93278.00;5138653;27;20187;-88
2022/01/10 02:52:50;;;;;;;5.70;3.53;;;;;;;6.47;95.71;93268.81;5156979;27;20171;-88
2022/01/10 02:55:16;;;;;;;4.23;3.63;;;;;;;6.54;95.49;93285.97;5156939;27;20183;-87
2022/01/10 02:57:43;;;;;;;4.77;3.57;;;;;;;6.51;95.11;93278.59;5156865;27;20276;-87
2022/01/10 03:00:19;;;;;;;4.40;3.50;;;;;;;6.52;95.17;93282.00;5138185;27;20677;-87
2022/01/10 03:02:49;;;;;;;5.37;3.60;;;;;;;6.36;95.40;93270.38;5156953;27;20167;-87
2022/01/10 03:05:15;;;;;;;3.97;3.23;;;;;;;6.47;95.53;93285.28;5157183;27;20152;-87
2022/01/10 03:07:40;;;;;;;4.47;3.03;;;;;;;5.98;95.38;93221.09;5157090;27;20160;-87
2022/01/10 03:10:07;;;;;;;5.17;3.17;;;;;;;6.36;96.08;93292.09;5138128;27;20152;-87
2022/01/10 03:12:33;;;;;;;6.03;3.87;;;;;;;6.34;96.22;93291.50;5138045;27;20714;-87
2022/01/10 03:14:59;;;;;;;7.53;4.13;;;;;;;5.79;96.05;93209.09;5156493;27;20251;-87
2022/01/10 03:17:25;;;;;;;7.17;4.33;;;;;;;6.07;95.72;93245.88;5147400;27;20168;-87
2022/01/10 03:19:50;;;;;;;6.83;4.37;;;;;;;6.25;95.88;93279.78;5156388;27;20183;-87
2022/01/10 03:22:16;;;;;;;7.93;5.13;;;;;;;6.30;95.80;93271.28;5137872;27;20183;-87
2022/01/10 03:24:41;;;;;;;6.73;3.90;;;;;;;6.09;95.89;93256.91;5156338;27;20171;-87
2022/01/10 03:27:06;;;;;;;6.53;4.10;;;;;;;6.14;96.11;93269.31;5156311;27;20178;-87
2022/01/10 03:29:32;;;;;;;7.47;4.47;;;;;;;6.17;96.39;93264.41;5137308;27;20178;-87
2022/01/10 03:31:57;;;;;;;6.83;4.17;;;;;;;6.04;96.21;93234.09;5135924;27;20262;-87
2022/01/10 03:34:23;;;;;;;6.20;4.07;;;;;;;6.16;95.85;93260.22;5155605;27;20195;-87
2022/01/10 03:36:48;;;;;;;6.20;4.20;;;;;;;6.37;95.69;93283.22;5137318;27;20172;-87
2022/01/10 03:39:14;;;;;;;7.00;4.20;;;;;;;6.09;95.50;93243.84;5155877;27;20270;-87
2022/01/10 03:41:40;;;;;;;6.93;4.70;;;;;;;6.11;95.27;93264.53;5155756;27;20638;-87
2022/01/10 03:44:06;;;;;;;7.50;5.07;;;;;;;6.27;95.67;93282.16;5156158;27;20160;-87
2022/01/10 03:46:33;;;;;;;8.53;5.30;;;;;;;6.21;95.30;93294.31;5137511;27;20202;-87
2022/01/10 03:49:03;;;;;;;8.87;4.87;;;;;;;5.71;95.63;93233.69;5137370;27;20167;-87
2022/01/10 03:51:28;;;;;;;8.10;5.33;;;;;;;5.82;95.58;93256.44;5155955;27;20532;-88
2022/01/10 03:53:54;;;;;;;8.40;5.03;;;;;;;5.75;95.52;93249.72;5137598;27;20254;-88
2022/01/10 03:56:21;;;;;;;10.30;5.47;;;;;;;5.99;96.26;93301.03;5155827;27;20962;-88
2022/01/10 03:58:46;;;;;;;12.47;5.83;;;;;;;5.80;96.24;93294.22;5156192;27;20203;-88
2022/01/10 04:01:13;;;;;;;6.73;5.17;;;;;;;5.65;96.19;93261.47;5137432;27;20175;-88
2022/01/10 04:03:40;;;;;;;10.93;5.67;;;;;;;5.48;95.89;93246.63;5156225;27;20156;-88
2022/01/10 04:06:06;;;;;;;8.57;5.13;;;;;;;5.83;96.25;93312.06;5137289;27;20176;-88
2022/01/10 04:08:32;;;;;;;8.20;5.03;;;;;;;5.71;96.39;93292.94;5156162;27;20239;-88
2022/01/10 04:10:58;;;;;;;7.90;4.57;;;;;;;5.72;95.24;93287.47;5155690;27;20199;-87
2022/01/10 04:13:24;;;;;;;6.83;4.47;;;;;;;5.72;95.53;93302.34;5155954;27;20545;-87
2022/01/10 04:15:50;;;;;;;9.10;5.13;;;;;;;5.83;95.29;93310.25;5136960;27;20168;-88
2022/01/10 04:18:16;;;;;;;6.83;4.23;;;;;;;5.79;95.10;93319.56;5137093;27;20172;-88
2022/01/10 04:20:43;;;;;;;7.63;5.07;;;;;;;5.82;95.45;93323.50;5154831;27;20199;-88
2022/01/10 04:23:09;;;;;;;7.43;4.30;;;;;;;5.77;94.97;93326.00;5155112;27;20228;-87
2022/01/10 04:25:34;;;;;;;7.33;3.90;;;;;;;5.53;95.34;93291.94;5136578;27;20606;-87
2022/01/10 04:28:00;;;;;;;5.63;3.47;;;;;;;5.39;94.76;93264.41;5136507;27;20214;-86
2022/01/10 04:30:26;;;;;;;4.43;2.70;;;;;;;5.71;94.35;93293.72;5155301;27;20615;-86
2022/01/10 04:32:51;;;;;;;3.70;2.50;;;;;;;5.61;93.51;93280.41;5136868;27;20164;-88
2022/01/10 04:35:16;;;;;;;2.80;2.60;;;;;;;5.69;92.18;93291.34;5136783;27;20606;-88
2022/01/10 04:37:47;;;;;;;4.37;2.13;;;;;;;5.51;91.68;93278.31;5136604;27;20676;-88
2022/01/10 04:40:13;;;;;;;2.63;2.17;;;;;;;5.67;91.79;93313.47;5136017;27;20227;-88
2022/01/10 04:42:38;;;;;;;3.97;2.77;;;;;;;5.93;91.59;93341.88;5154403;27;20179;-85
2022/01/10 04:45:04;;;;;;;3.77;3.00;;;;;;;5.50;91.18;93278.53;5136127;27;20187;-85
2022/01/10 04:47:30;;;;;;;5.17;3.13;;;;;;;5.71;90.82;93339.94;5136291;27;20552;-85
2022/01/10 04:52:21;;;;;;;6.27;3.10;;;;;;;5.28;91.15;93294.59;5154610;27;20266;-85
2022/01/10 04:54:46;;;;;;;4.07;3.13;;;;;;;5.47;91.52;93311.06;5135855;27;20184;-87
2022/01/10 04:57:11;;;;;;;3.40;2.80;;;;;;;5.59;91.93;93340.66;5154133;27;20188;-87
2022/01/10 04:59:37;;;;;;;4.27;2.67;;;;;;;5.44;92.00;93318.53;5135377;27;20179;-88
2022/01/10 05:02:03;;;;;;;4.03;2.67;;;;;;;5.64;92.22;93361.66;5135175;27;20399;-87
2022/01/10 05:04:28;;;;;;;5.80;3.10;;;;;;;5.71;92.02;93364.19;5135539;27;20171;-89
2022/01/10 05:06:53;;;;;;;5.67;3.33;;;;;;;5.25;92.55;93289.03;5135429;27;20183;-87
2022/01/10 05:09:19;;;;;;;6.37;3.40;;;;;;;5.46;92.31;93334.75;5135564;27;20175;-87
2022/01/10 05:11:45;;;;;;;5.10;3.10;;;;;;;5.42;93.09;93336.22;5135255;27;20566;-86
2022/01/10 05:14:11;;;;;;;11.20;3.80;;;;;;;5.60;93.17;93363.13;5154417;27;20236;-85
2022/01/10 05:16:39;;;;;;;5.07;3.53;;;;;;;5.60;93.19;93357.91;5154033;27;20660;-86
2022/01/10 05:19:04;;;;;;;5.43;3.50;;;;;;;5.51;92.67;93354.00;5135494;27;20201;-86
2022/01/10 05:21:29;;;;;;;4.63;3.73;;;;;;;5.52;93.39;93365.22;5154213;27;20234;-86
2022/01/10 05:23:55;;;;;;;7.57;4.57;;;;;;;5.43;93.86;93351.66;5135638;27;20176;-85
2022/01/10 05:26:21;;;;;;;6.37;3.40;;;;;;;5.41;93.97;93339.84;5135760;27;20187;-86
2022/01/10 05:28:46;;;;;;;5.43;3.80;;;;;;;5.18;94.69;93312.59;5153927;27;20634;-86
2022/01/10 05:31:13;;;;;;;6.50;4.10;;;;;;;5.05;95.14;93297.06;5153802;27;20202;-86
2022/01/10 05:33:38;;;;;;;5.80;3.80;;;;;;;5.17;95.63;93326.63;5153969;27;20152;-86
2022/01/10 05:36:04;;;;;;;7.10;4.30;;;;;;;5.32;96.09;93355.78;5153961;27;20765;-87
2022/01/10 05:38:29;;;;;;;8.97;4.90;;;;;;;5.17;95.91;93333.66;5135000;27;20239;-87
2022/01/10 05:40:55;;;;;;;6.67;3.77;;;;;;;5.12;96.49;93312.63;5153649;27;20172;-87
2022/01/10 05:43:20;;;;;;;11.93;4.30;;;;;;;5.24;96.51;93331.78;5154008;27;20669;-85
2022/01/10 05:45:46;;;;;;;7.63;4.87;;;;;;;5.38;96.29;93351.50;5154049;27;20172;-85
2022/01/10 05:48:15;;;;;;;8.73;4.80;;;;;;;5.56;96.44;93387.25;5136003;27;20257;-86
2022/01/10 05:50:43;;;;;;;12.17;5.40;;;;;;;5.18;96.80;93340.47;5154060;27;20578;-87
2022/01/10 05:53:10;;;;;;;9.93;5.73;;;;;;;5.23;97.05;93358.88;5135154;27;20164;-87
2022/01/10 05:55:37;;;;;;;10.23;5.73;;;;;;;5.48;96.80;93390.94;5152472;27;20182;-88
2022/01/10 05:58:07;;;;;;;7.00;4.93;;;;;;;5.39;97.51;93386.22;5152538;27;20171;-86
2022/01/10 06:00:34;;;;;;;8.23;5.13;;;;;;;5.44;97.09;93389.78;5152244;27;20279;-87
2022/01/10 06:03:02;;;;;;;8.17;5.13;;;;;;;5.45;96.52;93407.00;5134880;27;20239;-86
2022/01/10 06:05:31;;;;;;;6.47;4.80;;;;;;;5.21;96.39;93361.69;5153224;27;20166;-87
2022/01/10 06:08:02;;;;;;;5.97;3.73;;;;;;;5.46;95.86;93407.81;5153380;27;20216;-86
2022/01/10 06:10:28;;;;;;;7.43;4.07;;;;;;;5.23;95.69;93372.72;5153036;27;20155;-87
2022/01/10 06:12:55;;;;;;;5.67;4.20;;;;;;;4.96;94.98;93360.13;5134686;27;20570;-86
2022/01/10 06:15:21;;;;;;;16.47;4.90;;;;;;;5.32;95.35;93412.38;5134514;27;20171;-87
2022/01/10 06:17:46;;;;;;;7.80;4.70;;;;;;;4.94;95.16;93355.91;5153116;27;20171;-87
2022/01/10 06:20:14;;;;;;;8.43;5.17;;;;;;;4.97;95.56;93361.72;5153101;27;20585;-87
2022/01/10 06:22:44;;;;;;;7.93;5.10;;;;;;;5.36;95.87;93417.97;5153138;27;20178;-86
2022/01/10 06:25:15;;;;;;;8.83;5.00;;;;;;;5.32;96.32;93425.41;5153810;27;20171;-86
2022/01/10 06:27:43;;;;;;;10.23;4.83;;;;;;;5.21;95.89;93398.22;5153178;27;20176;-86
2022/01/10 06:30:11;;;;;;;9.30;5.27;;;;;;;5.31;95.92;93421.19;5153123;27;20243;-86
2022/01/10 06:32:36;;;;;;;9.43;5.63;;;;;;;5.19;96.39;93391.63;5152851;27;20646;-87
2022/01/10 06:35:02;;;;;;;11.23;5.77;;;;;;;5.31;96.23;93413.38;5152701;27;20234;-87
2022/01/10 06:37:28;;;;;;;9.80;5.97;;;;;;;5.10;95.94;93375.44;5152820;27;20623;-87
2022/01/10 06:39:53;;;;;;;7.13;5.27;;;;;;;5.43;95.51;93424.72;5153474;27;20217;-87
2022/01/10 06:42:23;;;;;;;8.13;5.07;;;;;;;5.49;95.71;93423.84;5134642;27;20160;-87
2022/01/10 06:44:50;;;;;;;10.37;5.50;;;;;;;5.50;95.67;93435.88;5153477;27;20152;-87
2022/01/10 06:47:17;;;;;;;11.40;5.87;;;;;;;5.31;95.39;93410.75;5153729;27;20183;-86
2022/01/10 06:49:42;;;;;;;10.20;6.20;;;;;;;5.25;95.84;93409.03;5153112;27;20159;-87
2022/01/10 06:52:08;;;;;;;11.10;6.23;;;;;;;5.18;96.21;93403.88;5153477;27;20156;-87
2022/01/10 06:54:34;;;;;;;9.00;6.23;;;;;;;5.32;95.88;93428.81;5153045;27;20186;-87
2022/01/10 06:57:00;;;;;;;10.23;6.10;;;;;;;5.28;96.14;93411.97;5153435;27;20209;-86
2022/01/10 06:59:26;;;;;;;10.47;7.17;;;;;;;5.45;96.09;93446.16;5152934;27;20188;-86
2022/01/10 07:01:55;;;;;;;11.90;7.97;;;;;;;5.30;96.35;93420.41;5116627;27;20187;-86
2022/01/10 07:04:22;;;;;;;11.43;7.03;;;;;;;5.53;95.42;93448.50;5134505;27;20186;-86
2022/01/10 07:06:50;;;;;;;13.23;7.37;;;;;;;5.45;95.39;93442.78;5156419;27;20228;-87
2022/01/10 07:09:16;;;;;;;10.47;6.87;;;;;;;5.47;95.96;93451.16;5137767;27;20614;-85
2022/01/10 07:11:41;;;;;;;14.73;7.50;;;;;;;5.08;96.11;93385.28;5156666;27;20166;-85
2022/01/10 07:14:07;;;;;;;13.13;7.13;;;;;;;5.48;95.74;93457.97;5156561;27;20171;-85
2022/01/10 07:16:34;;;;;;;11.30;6.90;;;;;;;5.51;96.11;93462.78;5156694;27;20168;-85
2022/01/10 07:19:02;;;;;;;11.57;7.20;;;;;;;5.36;96.41;93444.84;5137790;27;20199;-85
2022/01/10 07:21:27;;;;;;;9.93;6.67;;;;;;;5.42;95.99;93444.00;5155651;27;20179;-85
2022/01/10 07:23:53;;;;;;;11.17;7.47;;;;;;;5.49;96.64;93444.72;5155755;27;20164;-87
2022/01/10 07:26:18;;;;;;;15.87;7.77;;;;;;;5.63;96.38;93480.13;5155928;27;20171;-87
2022/01/10 07:28:44;;;;;;;15.50;7.97;;;;;;;5.50;96.68;93446.31;5155226;27;20176;-86
2022/01/10 07:31:10;;;;;;;12.93;7.67;;;;;;;5.79;96.83;93470.16;5155428;27;20262;-86
2022/01/10 07:33:37;;;;;;;12.20;7.80;;;;;;;5.69;96.23;93445.34;5136600;27;20628;-87
2022/01/10 07:36:05;;;;;;;11.40;7.27;;;;;;;5.63;95.88;93438.34;5136988;27;20212;-88
2022/01/10 07:38:35;;;;;;;17.00;7.47;;;;;;;5.99;95.53;93486.44;5137288;27;20204;-87
2022/01/10 07:41:07;;;;;;;15.20;8.13;;;;;;;5.72;95.40;93459.75;5137516;27;20581;-88
2022/01/10 07:43:33;;;;;;;11.90;7.33;;;;;;;5.86;95.23;93494.38;5137778;27;20168;-86
2022/01/10 07:45:59;;;;;;;11.90;7.43;;;;;;;5.86;95.64;93497.81;5136363;27;20167;-86
2022/01/10 07:48:27;;;;;;;15.10;7.67;;;;;;;5.76;95.69;93487.03;5136057;27;20190;-86
2022/01/10 07:50:53;;;;;;;12.07;7.87;;;;;;;5.82;95.30;93477.53;5144273;27;20577;-86
2022/01/10 07:53:18;;;;;;;14.40;9.03;;;;;;;5.95;95.27;93488.72;5136912;27;20164;-86
2022/01/10 07:55:44;;;;;;;12.83;8.43;;;;;;;6.00;94.15;93495.88;5136943;27;20906;-85
2022/01/10 07:58:11;;;;;;;14.67;8.00;;;;;;;5.56;93.55;93416.75;5136591;27;20207;-85
2022/01/10 08:00:39;;;;;;;15.23;9.07;;;;;;;6.06;92.67;93500.22;5136660;27;20755;-88
2022/01/10 08:03:05;;;;;;;13.03;7.27;;;;;;;5.56;91.92;93435.03;5154854;27;20250;-85
2022/01/10 08:05:30;;;;;;;13.47;6.43;;;;;;;5.93;91.87;93497.75;5154831;27;20189;-85
2022/01/10 08:07:58;;;;;;;9.47;5.73;;;;;;;5.83;90.81;93489.59;5119015;27;20183;-86
2022/01/10 08:10:24;;;;;;;9.23;5.47;;;;;;;5.78;89.86;93500.69;5152644;27;20250;-86
2022/01/10 08:12:53;;;;;;;10.93;5.80;;;;;;;5.75;89.58;93510.75;5155268;27;20228;-85
2022/01/10 08:15:22;;;;;;;8.87;5.60;;;;;;;5.59;90.45;93480.78;5137166;27;20263;-86
2022/01/10 08:17:50;;;;;;;12.63;6.90;;;;;;;5.72;90.58;93505.94;5153132;27;20220;-88
2022/01/10 08:20:15;;;;;;;11.80;6.20;;;;;;;5.65;90.74;93491.16;5128139;27;20254;-86
2022/01/10 08:22:41;;;;;;;7.87;5.40;;;;;;;5.69;90.85;93487.13;5143064;27;20583;-87
2022/01/10 08:25:09;;;;;;;11.57;5.30;;;;;;;5.80;90.81;93503.88;5145648;27;20183;-83
2022/01/10 08:27:36;;;;;;;9.50;5.10;;;;;;;5.69;89.09;93508.00;5134371;27;20168;-86
2022/01/10 08:30:03;;;;;;;16.90;4.63;;;;;;;5.49;89.18;93470.81;5148908;27;20206;-86
2022/01/10 08:32:28;;;;;;;10.47;5.27;;;;;;;5.18;89.11;93416.91;5136715;27;20171;-86
2022/01/10 08:34:54;;;;;;;8.33;4.80;;;;;;;5.23;88.46;93448.34;5155244;27;20293;-86
2022/01/10 08:37:21;;;;;;;8.30;4.37;;;;;;;5.37;89.09;93471.72;5136628;27;20163;-87
2022/01/10 08:39:51;;;;;;;12.20;5.13;;;;;;;5.43;88.67;93465.66;5136195;27;20651;-87
2022/01/10 08:42:27;;;;;;;6.77;4.27;;;;;;;5.67;88.46;93511.81;5154794;27;20233;-87
2022/01/10 08:44:53;;;;;;;8.27;3.60;;;;;;;5.40;88.26;93476.50;5154813;27;20163;-88
2022/01/10 08:47:19;;;;;;;5.03;3.23;;;;;;;5.18;87.51;93463.06;5154841;27;20167;-87
2022/01/10 08:49:45;;;;;;;8.27;4.17;;;;;;;5.38;87.49;93515.06;5136334;27;20172;-88
2022/01/10 08:52:10;;;;;;;5.80;3.97;;;;;;;5.15;88.08;93487.75;5136344;27;20216;-87
2022/01/10 08:54:37;;;;;;;8.50;4.43;;;;;;;5.16;89.12;93483.31;5139420;27;20194;-87
2022/01/10 08:57:03;;;;;;;5.67;3.50;;;;;;;5.15;89.46;93486.94;5154717;27;20152;-86
2022/01/10 08:59:29;;;;;;;6.10;4.23;;;;;;;5.39;89.86;93519.28;5135978;27;20249;-88
2022/01/10 09:01:59;;;;;;;4.60;3.70;;;;;;;5.27;89.27;93501.72;5154591;27;20194;-88
2022/01/10 09:04:26;;;;;;;5.27;3.53;;;;;;;5.44;89.38;93524.66;5135953;27;20175;-88
2022/01/10 09:06:54;;;;;;;6.37;4.83;;;;;;;5.49;89.41;93520.41;5154870;27;20159;-88
2022/01/10 09:09:24;;;;;;;6.67;4.00;;;;;;;5.51;88.73;93521.00;5154513;27;20163;-88
2022/01/10 09:11:50;;;;;;;7.10;3.93;;;;;;;5.54;89.48;93522.34;5154706;27;20160;-89
2022/01/10 09:14:19;;;;;;;6.67;5.00;;;;;;;5.53;89.26;93507.75;5154261;27;20273;-88
2022/01/10 09:16:45;;;;;;;6.50;3.83;;;;;;;5.53;88.20;93512.94;5135794;27;20168;-88
2022/01/10 09:19:14;;;;;;;6.40;3.97;;;;;;;5.59;88.47;93530.38;5147458;27;20200;-84
2022/01/10 09:21:40;;;;;;;6.70;4.53;;;;;;;5.50;88.60;93519.38;5153968;27;20641;-84
2022/01/10 09:24:06;;;;;;;7.07;4.07;;;;;;;5.45;88.69;93500.94;5154047;27;20172;-89
2022/01/10 09:26:31;;;;;;;8.60;4.37;;;;;;;5.56;89.08;93518.53;5135946;27;20186;-88
2022/01/10 09:28:57;;;;;;;8.63;4.47;;;;;;;5.23;88.82;93476.25;5135139;27;20188;-88
2022/01/10 09:31:23;;;;;;;7.33;4.77;;;;;;;5.40;89.85;93507.81;5135486;27;20167;-86
2022/01/10 09:33:52;;;;;;;5.27;3.97;;;;;;;5.54;89.88;93517.13;5135269;27;20172;-86
2022/01/10 09:36:19;;;;;;;7.43;4.77;;;;;;;5.49;89.56;93515.19;5135374;27;20288;-89
2022/01/10 09:38:44;;;;;;;9.33;5.57;;;;;;;5.11;89.59;93465.69;5135569;27;20677;-91
2022/01/10 09:41:09;;;;;;;6.43;3.83;;;;;;;5.20;88.94;93474.06;5135274;27;20258;-88
2022/01/10 09:43:38;;;;;;;6.87;4.23;;;;;;;5.04;88.12;93469.34;5135444;27;20262;-89
2022/01/10 09:46:03;;;;;;;7.33;3.83;;;;;;;4.95;88.58;93471.41;5135380;27;20168;-88
2022/01/10 09:48:29;;;;;;;7.77;4.50;;;;;;;5.04;88.80;93477.97;5153712;27;20167;-87
2022/01/10 09:50:54;;;;;;;8.33;4.07;;;;;;;4.98;88.46;93462.38;5135310;27;20183;-87
2022/01/10 09:53:21;;;;;;;10.27;4.60;;;;;;;5.36;88.44;93525.72;5153596;27;20163;-87
2022/01/10 09:55:48;;;;;;;7.93;5.20;;;;;;;5.34;88.37;93519.13;5153359;27;20314;-87
2022/01/10 09:58:14;;;;;;;9.73;5.90;;;;;;;4.85;88.34;93458.84;5153584;27;20171;-87
2022/01/10 10:00:40;;;;;;;5.70;4.13;;;;;;;4.92;88.38;93461.44;5134958;27;20229;-87
2022/01/10 10:03:08;;;;;;;9.00;5.00;;;;;;;4.86;88.07;93463.06;5139503;27;20172;-85
2022/01/10 10:05:34;;;;;;;12.80;4.60;;;;;;;5.25;87.98;93516.75;5144836;27;20160;-86
2022/01/10 10:08:00;;;;;;;6.27;4.63;;;;;;;5.33;87.65;93533.97;5134848;27;20180;-86
2022/01/10 10:10:28;;;;;;;8.87;4.80;;;;;;;5.35;87.53;93534.56;5153379;27;20219;-86
2022/01/10 10:12:54;;;;;;;8.20;4.80;;;;;;;5.38;88.11;93528.09;5131852;27;20230;-86
2022/01/10 10:15:26;;;;;;;10.70;5.47;;;;;;;5.06;88.31;93478.56;5117368;28;20183;-85
2022/01/10 10:17:52;;;;;;;9.07;5.17;;;;;;;5.43;88.74;93531.69;5140488;27;20167;-85
2022/01/10 10:20:21;;;;;;;10.17;6.10;;;;;;;5.47;89.25;93527.63;5119049;28;20200;-85
2022/01/10 10:22:50;;;;;;;10.63;5.47;;;;;;;5.54;89.50;93528.38;5114090;28;20167;-84
2022/01/10 10:25:15;;;;;;;8.37;5.00;;;;;;;5.23;88.61;93484.88;5139278;27;20194;-85
2022/01/10 10:27:46;;;;;;;7.67;5.03;;;;;;;5.03;88.75;93450.31;5134391;27;20259;-85
2022/01/10 10:30:18;;;;;;;10.53;5.23;;;;;;;5.41;89.24;93501.59;5151805;27;20220;-85
2022/01/10 10:32:44;;;;;;;10.50;5.60;;;;;;;5.37;89.63;93489.97;5116305;27;20620;-85
2022/01/10 10:35:10;;;;;;;8.30;5.10;;;;;;;5.44;89.65;93503.78;5133285;27;20244;-85
2022/01/10 10:37:37;;;;;;;9.70;5.50;;;;;;;5.62;89.91;93519.50;5150337;27;20645;-86
2022/01/10 10:40:08;;;;;;;9.47;5.00;;;;;;;5.49;90.60;93499.53;5133293;27;20206;-85
2022/01/10 10:42:34;;;;;;;10.40;5.57;;;;;;;5.58;90.47;93515.72;5136681;27;20187;-85
2022/01/10 10:45:09;;;;;;;8.47;5.30;;;;;;;5.53;90.50;93524.19;5136730;27;20270;-86
2022/01/10 10:47:36;;;;;;;10.60;5.13;;;;;;;5.58;91.30;93523.53;5120505;27;20259;-85
2022/01/10 10:50:05;;;;;;;9.03;5.40;;;;;;;5.44;91.25;93503.78;5156330;27;20174;-86
2022/01/10 10:52:39;;;;;;;6.83;4.10;;;;;;;5.10;91.15;93450.28;5137321;27;20172;-85
2022/01/10 10:55:11;;;;;;;9.40;5.27;;;;;;;5.50;91.23;93529.03;5137244;27;20272;-85
2022/01/10 10:57:41;;;;;;;9.87;4.83;;;;;;;5.20;91.95;93484.47;5155361;27;20267;-86
2022/01/10 11:00:15;;;;;;;8.40;5.07;;;;;;;5.07;91.61;93463.72;5155292;27;20242;-85
2022/01/10 11:02:44;;;;;;;7.20;4.87;;;;;;;5.15;92.19;93477.31;5155281;27;20258;-86
2022/01/10 11:05:10;;;;;;;8.30;5.50;;;;;;;5.24;93.04;93485.66;5136610;27;20211;-86
2022/01/10 11:07:35;;;;;;;11.73;5.70;;;;;;;5.17;92.95;93461.44;5155504;27;20208;-86
2022/01/10 11:10:04;;;;;;;6.60;4.00;;;;;;;5.47;92.55;93513.78;5155369;27;20168;-86
2022/01/10 11:12:33;;;;;;;8.87;4.60;;;;;;;5.23;92.06;93484.88;5136573;27;20172;-86
2022/01/10 11:14:59;;;;;;;6.03;3.33;;;;;;;5.60;91.81;93545.81;5155128;27;20186;-86
2022/01/10 11:17:26;;;;;;;5.57;3.67;;;;;;;5.31;91.66;93509.91;5137405;27;20171;-89
2022/01/10 11:20:19;;;;;;;5.13;4.00;;;;;;;5.34;91.08;93519.13;5136271;27;20192;-90
2022/01/10 11:22:48;;;;;;;5.20;3.40;;;;;;;5.07;91.79;93487.19;5155003;27;20198;-87
2022/01/10 11:25:34;;;;;;;7.10;3.97;;;;;;;5.15;91.38;93510.41;5138263;27;20248;-86
2022/01/10 11:28:06;;;;;;;6.53;3.63;;;;;;;5.23;92.18;93544.88;5137678;27;20167;-86
2022/01/10 11:30:40;;;;;;;7.63;4.40;;;;;;;4.93;92.01;93502.91;5156049;27;20148;-87
2022/01/10 11:33:16;;;;;;;8.17;6.10;;;;;;;4.66;92.01;93467.59;5155456;27;20262;-85
2022/01/10 11:35:51;;;;;;;8.43;4.93;;;;;;;5.10;91.98;93549.38;5155565;27;20601;-86
2022/01/10 11:38:19;;;;;;;9.33;5.17;;;;;;;4.99;91.91;93542.19;5137102;27;20187;-87
2022/01/10 11:40:51;;;;;;;5.87;3.77;;;;;;;4.70;92.39;93507.06;5155720;27;20662;-86
2022/01/10 11:43:43;;;;;;;7.93;4.40;;;;;;;4.96;92.55;93550.44;5123877;27;20179;-85
2022/01/10 11:46:16;;;;;;;6.77;4.13;;;;;;;4.97;91.96;93547.63;5109516;27;20191;-86
2022/01/10 11:48:43;;;;;;;5.47;3.73;;;;;;;4.59;91.76;93489.47;5137859;27;20180;-85